28M weather

Cranland Airport
Hanson, Massachusetts, United States

Public forecast

Using degrees Fahrenheit for public forecast. Weather courtesy of forecast.io.

METAR (pilot weather report)

Closest report is Plymouth Municipal Airport, 8.5 nm (15.8 km) SE. Retrieved 2019/09/23 07:52 UTC (35 minutes ago):

KPYM 230752Z AUTO 21007KT 10SM CLR 19/18 A2993 RMK AO2 SLP133 T01940178 $

TAF (pilot weather forecast)

Closest forecast is General Edward Lawrence Logan International Airport, 21.7 nm (40.2 km) NNW. Retrieved 2019/09/23 06:39 UTC (2 hours ago):

TAF KBOS 230532Z 2306/2412 22014KT P6SM BKN250 FM231800 22014G23KT P6SM BKN250 FM240000 22011KT P6SM VCSH OVC060 FM240300 23009KT 3SM SHRA OVC060 FM240600 23007KT 2SM +SHRA OVC070 FM240800 24006KT P6SM BKN250